createdAt,value
2023-05-14T00:01:57.126Z,14.72
2023-05-14T00:04:25.974Z,14.70
2023-05-14T00:06:55.540Z,14.66
2023-05-14T00:09:24.066Z,14.63
2023-05-14T00:11:52.617Z,14.58
2023-05-14T00:14:21.284Z,14.53
2023-05-14T00:16:50.448Z,14.49
2023-05-14T00:19:19.031Z,14.45
2023-05-14T00:21:49.302Z,14.45
2023-05-14T00:24:18.852Z,14.43
2023-05-14T00:26:47.343Z,14.42
2023-05-14T00:29:15.926Z,14.40
2023-05-14T00:31:44.495Z,14.37
2023-05-14T00:34:13.140Z,14.33
2023-05-14T00:36:41.633Z,14.29
2023-05-14T00:39:10.140Z,14.25
2023-05-14T00:41:39.667Z,14.24
2023-05-14T00:44:08.211Z,14.21
2023-05-14T00:46:36.573Z,14.20
2023-05-14T00:49:05.513Z,14.18
2023-05-14T00:51:34.230Z,14.15
2023-05-14T00:54:03.151Z,14.13
2023-05-14T00:56:32.437Z,14.09
2023-05-14T00:59:02.828Z,14.05
2023-05-14T01:01:31.534Z,14.00
2023-05-14T01:04:00.439Z,13.93
2023-05-14T01:06:39.239Z,13.90
2023-05-14T01:09:18.854Z,13.85
2023-05-14T01:11:54.860Z,13.76
2023-05-14T01:14:46.092Z,13.76
2023-05-14T01:17:15.633Z,13.63
2023-05-14T01:19:45.930Z,13.61
2023-05-14T01:22:16.312Z,13.56
2023-05-14T01:24:44.561Z,13.48
2023-05-14T01:27:18.237Z,13.44
2023-05-14T01:29:56.579Z,13.39
2023-05-14T01:32:26.463Z,13.34
2023-05-14T01:34:57.732Z,13.30
2023-05-14T01:37:30.884Z,13.31
2023-05-14T01:40:01.200Z,13.30
2023-05-14T01:42:30.503Z,13.28
2023-05-14T01:44:59.054Z,13.28
2023-05-14T01:47:27.619Z,13.29
2023-05-14T01:49:56.629Z,13.29
2023-05-14T01:52:25.182Z,13.29
2023-05-14T01:54:55.071Z,13.27
2023-05-14T01:57:23.634Z,13.23
2023-05-14T01:59:52.180Z,13.19
2023-05-14T02:02:20.432Z,13.16
2023-05-14T02:04:49.001Z,13.13
2023-05-14T02:07:17.638Z,13.10
2023-05-14T02:09:47.512Z,13.08
2023-05-14T02:12:17.387Z,13.04
2023-05-14T02:14:46.109Z,13.00
2023-05-14T02:17:15.875Z,12.96
2023-05-14T02:19:44.126Z,12.93
2023-05-14T02:22:12.718Z,12.91
2023-05-14T02:24:41.263Z,12.89
2023-05-14T02:27:09.838Z,12.85
2023-05-14T02:29:39.912Z,12.82
2023-05-14T02:32:08.955Z,12.74
2023-05-14T02:34:38.584Z,12.71
2023-05-14T02:37:07.015Z,12.67
2023-05-14T02:39:35.522Z,12.63
2023-05-14T02:42:03.750Z,12.59
2023-05-14T02:44:32.719Z,12.55
2023-05-14T02:47:02.661Z,12.52
2023-05-14T02:49:31.318Z,12.48
2023-05-14T02:52:00.798Z,12.44
2023-05-14T02:54:29.018Z,12.41
2023-05-14T02:56:57.590Z,12.39
2023-05-14T02:59:26.476Z,12.36
2023-05-14T03:01:55.554Z,12.32
2023-05-14T03:04:26.012Z,12.29
2023-05-14T03:06:54.546Z,12.28
2023-05-14T03:09:22.715Z,12.25
2023-05-14T03:11:51.801Z,12.26
2023-05-14T03:14:20.395Z,12.25
2023-05-14T03:16:48.630Z,12.22
2023-05-14T03:19:17.501Z,12.21
2023-05-14T03:21:47.130Z,12.18
2023-05-14T03:24:15.598Z,12.15
2023-05-14T03:26:45.835Z,12.11
2023-05-14T03:29:17.923Z,12.08
2023-05-14T03:31:46.683Z,12.08
2023-05-14T03:34:15.235Z,12.06
2023-05-14T03:36:43.862Z,12.05
2023-05-14T03:39:15.424Z,12.04
2023-05-14T03:41:43.993Z,12.01
2023-05-14T03:44:12.585Z,12.02
2023-05-14T03:46:41.267Z,12.01
2023-05-14T03:49:09.855Z,11.97
2023-05-14T03:51:38.436Z,11.95
2023-05-14T03:54:08.353Z,11.92
2023-05-14T03:56:38.091Z,11.90
2023-05-14T03:59:06.684Z,11.87
2023-05-14T04:01:35.354Z,11.86
2023-05-14T04:04:04.579Z,11.86
2023-05-14T04:06:33.950Z,11.82
2023-05-14T04:09:04.025Z,11.83
2023-05-14T04:11:32.539Z,11.82
2023-05-14T04:14:02.804Z,11.84
2023-05-14T04:16:31.707Z,11.82
2023-05-14T04:19:04.736Z,11.84
2023-05-14T04:21:33.449Z,11.87
2023-05-14T04:24:01.934Z,11.93
2023-05-14T04:26:30.458Z,11.98
2023-05-14T04:29:02.829Z,12.02
2023-05-14T04:31:32.651Z,12.07
2023-05-14T04:34:00.868Z,12.10
2023-05-14T04:36:29.397Z,12.16
2023-05-14T04:38:57.620Z,12.19
2023-05-14T04:41:26.167Z,12.24
2023-05-14T04:43:57.680Z,12.33
2023-05-14T04:46:26.514Z,12.37
2023-05-14T04:48:56.576Z,12.41
2023-05-14T04:51:26.305Z,12.44
2023-05-14T04:53:54.802Z,12.46
2023-05-14T04:56:23.306Z,12.51
2023-05-14T04:58:51.960Z,12.51
2023-05-14T05:01:20.938Z,12.52
2023-05-14T05:03:49.781Z,12.56
2023-05-14T05:06:19.440Z,12.61
2023-05-14T05:08:47.945Z,12.64
2023-05-14T05:11:16.478Z,12.71
2023-05-14T05:13:44.849Z,12.77
2023-05-14T05:16:13.530Z,12.82
2023-05-14T05:18:41.860Z,12.87
2023-05-14T05:21:10.135Z,12.91
2023-05-14T05:23:39.746Z,12.99
2023-05-14T05:26:08.355Z,13.05
2023-05-14T05:28:36.918Z,13.13
2023-05-14T05:31:05.673Z,13.22
2023-05-14T05:33:35.160Z,13.32
2023-05-14T05:36:03.766Z,13.40
2023-05-14T05:38:32.424Z,13.49
2023-05-14T05:41:02.281Z,13.59
2023-05-14T05:43:30.843Z,13.65
2023-05-14T05:45:59.333Z,13.74
2023-05-14T05:48:28.194Z,13.82
2023-05-14T05:50:56.850Z,13.89
2023-05-14T05:53:25.388Z,13.95
2023-05-14T05:55:53.866Z,14.03
2023-05-14T05:58:23.418Z,14.14
2023-05-14T06:00:51.930Z,14.21
2023-05-14T06:03:20.958Z,14.29
2023-05-14T06:05:49.655Z,14.33
2023-05-14T06:08:18.277Z,14.41
2023-05-14T06:10:47.691Z,14.48
2023-05-14T06:13:16.060Z,14.53
2023-05-14T06:15:45.727Z,14.60
2023-05-14T06:18:14.228Z,14.69
2023-05-14T06:20:42.472Z,14.77
2023-05-14T06:23:12.136Z,14.87
2023-05-14T06:25:40.407Z,14.94
2023-05-14T06:28:08.964Z,15.05
2023-05-14T06:30:37.443Z,15.20
2023-05-14T06:33:07.317Z,15.36
2023-05-14T06:35:35.860Z,15.50
2023-05-14T06:38:04.576Z,15.64
2023-05-14T06:40:32.967Z,15.80
2023-05-14T06:43:02.231Z,15.95
2023-05-14T06:45:33.042Z,16.03
2023-05-14T06:48:01.846Z,16.05
2023-05-14T06:50:31.557Z,16.02
2023-05-14T06:53:00.093Z,15.96
2023-05-14T06:55:28.747Z,15.91
2023-05-14T06:57:57.327Z,15.87
2023-05-14T07:00:26.429Z,15.79
2023-05-14T07:02:55.240Z,15.74
2023-05-14T07:05:23.583Z,15.72
2023-05-14T07:07:53.339Z,15.75
2023-05-14T07:10:22.104Z,15.76
2023-05-14T07:12:50.896Z,15.78
2023-05-14T07:15:19.556Z,15.81
2023-05-14T07:17:48.103Z,15.83
2023-05-14T07:20:16.983Z,15.90
2023-05-14T07:22:45.487Z,16.13
2023-05-14T07:25:15.880Z,16.53
2023-05-14T07:27:44.517Z,17.25
2023-05-14T07:30:13.357Z,18.26
2023-05-14T07:32:42.177Z,19.30
2023-05-14T07:35:11.700Z,20.22
2023-05-14T07:37:40.463Z,21.08
2023-05-14T07:40:10.411Z,21.87
2023-05-14T07:42:39.973Z,22.46
2023-05-14T07:45:10.586Z,22.95
2023-05-14T07:47:38.868Z,23.20
2023-05-14T07:50:08.907Z,23.43
2023-05-14T07:52:37.401Z,23.52
2023-05-14T07:55:06.878Z,23.65
2023-05-14T07:57:35.514Z,23.71
2023-05-14T08:00:07.921Z,23.79
2023-05-14T08:02:41.065Z,23.82
2023-05-14T08:05:10.428Z,23.80
2023-05-14T08:07:38.914Z,23.67
2023-05-14T08:10:09.008Z,23.50
2023-05-14T08:12:37.545Z,23.49
2023-05-14T08:15:09.441Z,23.50
2023-05-14T08:17:38.029Z,23.39
2023-05-14T08:20:09.022Z,23.45
2023-05-14T08:22:37.859Z,23.55
2023-05-14T08:25:07.763Z,23.66
2023-05-14T08:27:36.389Z,23.63
2023-05-14T08:30:07.415Z,23.71
2023-05-14T08:32:35.995Z,23.33
2023-05-14T08:35:04.485Z,22.65
2023-05-14T08:37:33.220Z,22.21
2023-05-14T08:40:01.972Z,22.01
2023-05-14T08:42:31.053Z,21.69
2023-05-14T08:45:02.906Z,21.52
2023-05-14T08:47:32.856Z,21.54
2023-05-14T08:50:05.280Z,21.35
2023-05-14T08:52:34.673Z,21.29
2023-05-14T08:55:06.363Z,21.62
2023-05-14T08:57:35.358Z,22.03
2023-05-14T09:00:08.314Z,22.37
2023-05-14T09:02:38.448Z,22.99
2023-05-14T09:05:09.235Z,23.61
2023-05-14T09:07:38.013Z,23.97
2023-05-14T09:10:08.887Z,24.25
2023-05-14T09:12:37.449Z,24.53
2023-05-14T09:15:07.820Z,24.80
2023-05-14T09:17:37.532Z,25.15
2023-05-14T09:20:07.786Z,25.26
2023-05-14T09:22:36.345Z,25.25
2023-05-14T09:25:06.802Z,25.39
2023-05-14T09:27:36.771Z,25.66
2023-05-14T09:30:13.471Z,26.08
2023-05-14T09:32:45.797Z,26.03
2023-05-14T09:35:17.602Z,25.51
2023-05-14T09:37:48.382Z,24.97
2023-05-14T09:40:19.308Z,24.57
2023-05-14T09:42:49.141Z,24.20
2023-05-14T09:45:18.401Z,23.95
2023-05-14T09:47:48.260Z,23.69
2023-05-14T09:50:17.010Z,23.42
2023-05-14T09:52:45.358Z,23.32
2023-05-14T09:55:14.372Z,23.34
2023-05-14T09:57:42.993Z,23.51
2023-05-14T10:00:12.680Z,23.63
2023-05-14T10:02:43.913Z,23.60
2023-05-14T10:05:15.843Z,23.54
2023-05-14T10:07:49.130Z,23.42
2023-05-14T10:10:21.287Z,23.13
2023-05-14T10:12:54.545Z,22.83
2023-05-14T10:15:29.552Z,22.53
2023-05-14T10:18:04.547Z,22.34
2023-05-14T10:20:34.510Z,22.21
2023-05-14T10:23:03.146Z,22.03
2023-05-14T10:25:31.750Z,21.85
2023-05-14T10:28:01.011Z,21.70
2023-05-14T10:30:29.555Z,21.60
2023-05-14T10:33:12.722Z,21.56
2023-05-14T10:36:04.962Z,21.48
2023-05-14T10:38:36.577Z,21.34
2023-05-14T10:41:06.330Z,21.24
2023-05-14T10:43:39.004Z,21.24
2023-05-14T10:46:08.512Z,21.25
2023-05-14T10:48:38.938Z,21.31
2023-05-14T10:51:11.701Z,21.39
2023-05-14T10:53:41.722Z,21.33
2023-05-14T10:56:11.697Z,21.32
2023-05-14T10:58:41.607Z,21.31
2023-05-14T11:01:11.599Z,21.31
2023-05-14T11:03:44.852Z,21.30
2023-05-14T11:06:16.407Z,21.31
2023-05-14T11:08:46.397Z,21.27
2023-05-14T11:11:15.097Z,21.22
2023-05-14T11:13:45.635Z,21.23
2023-05-14T11:18:54.031Z,21.32
2023-05-14T11:21:23.848Z,21.42
2023-05-14T11:23:52.433Z,21.53
2023-05-14T11:26:21.837Z,21.65
2023-05-14T11:28:50.316Z,21.73
2023-05-14T11:31:19.004Z,21.82
2023-05-14T11:33:47.909Z,21.95
2023-05-14T11:36:16.510Z,22.10
2023-05-14T11:38:51.336Z,22.34
2023-05-14T11:41:21.556Z,22.51
2023-05-14T11:43:50.745Z,22.70
2023-05-14T11:46:19.721Z,22.86
2023-05-14T11:48:48.803Z,22.95
2023-05-14T11:51:17.363Z,23.08
2023-05-14T11:53:48.094Z,23.17
2023-05-14T11:56:16.658Z,23.24
2023-05-14T11:58:49.889Z,23.46
2023-05-14T12:01:18.514Z,23.53
2023-05-14T12:03:47.357Z,23.59
2023-05-14T12:06:16.029Z,23.67
2023-05-14T12:08:44.670Z,23.71
2023-05-14T12:11:14.282Z,23.77
2023-05-14T12:13:42.851Z,23.92
2023-05-14T12:16:11.376Z,24.17
2023-05-14T12:18:39.992Z,24.40
2023-05-14T12:21:09.079Z,24.53
2023-05-14T12:23:39.459Z,24.68
2023-05-14T12:26:10.106Z,24.81
2023-05-14T12:28:43.407Z,25.02
2023-05-14T12:31:12.450Z,25.61
2023-05-14T12:33:40.669Z,26.31
2023-05-14T12:36:21.128Z,26.97
2023-05-14T12:38:50.293Z,27.02
2023-05-14T12:41:18.913Z,26.86
2023-05-14T12:43:50.091Z,26.77
2023-05-14T12:46:18.910Z,26.63
2023-05-14T12:48:47.364Z,26.44
2023-05-14T12:51:15.963Z,26.30
2023-05-14T12:53:44.582Z,26.22
2023-05-14T12:56:13.818Z,26.29
2023-05-14T12:58:42.879Z,26.50
2023-05-14T13:01:12.479Z,26.61
2023-05-14T13:03:41.048Z,26.78
2023-05-14T13:06:09.554Z,27.12
2023-05-14T13:08:37.792Z,27.42
2023-05-14T13:11:06.305Z,27.59
2023-05-14T13:13:34.788Z,27.68
2023-05-14T13:16:03.497Z,27.88
2023-05-14T13:18:33.111Z,28.18
2023-05-14T13:21:04.229Z,28.38
2023-05-14T13:23:32.836Z,28.67
2023-05-14T13:26:01.701Z,28.93
2023-05-14T13:28:30.426Z,29.12
2023-05-14T13:31:08.286Z,29.62
2023-05-14T13:33:41.698Z,30.18
2023-05-14T13:36:11.773Z,30.67
2023-05-14T13:38:40.441Z,31.09
2023-05-14T13:41:09.536Z,31.50
2023-05-14T13:43:37.914Z,31.83
2023-05-14T13:46:06.993Z,31.59
2023-05-14T13:48:37.241Z,31.48
2023-05-14T13:51:06.868Z,31.62
2023-05-14T13:53:35.361Z,31.78
2023-05-14T13:56:03.645Z,32.07
2023-05-14T13:58:31.955Z,32.25
2023-05-14T14:01:00.595Z,31.93
2023-05-14T14:03:29.174Z,31.95
2023-05-14T14:05:57.431Z,32.09
2023-05-14T14:08:27.098Z,32.29
2023-05-14T14:10:55.715Z,32.39
2023-05-14T14:13:24.565Z,32.40
2023-05-14T14:15:53.220Z,32.41
2023-05-14T14:18:21.839Z,32.61
2023-05-14T14:20:50.039Z,32.83
2023-05-14T14:23:18.204Z,33.03
2023-05-14T14:25:47.756Z,33.27
2023-05-14T14:28:16.397Z,33.55
2023-05-14T14:30:44.756Z,33.80
2023-05-14T14:33:13.048Z,33.95
2023-05-14T14:35:41.639Z,34.08
2023-05-14T14:38:09.889Z,34.26
2023-05-14T14:40:38.153Z,34.45
2023-05-14T14:43:07.695Z,34.29
2023-05-14T14:45:36.300Z,34.20
2023-05-14T14:48:25.105Z,34.19
2023-05-14T14:50:54.130Z,33.98
2023-05-14T14:53:23.368Z,33.98
2023-05-14T14:55:52.697Z,33.97
2023-05-14T14:58:22.814Z,34.01
2023-05-14T15:00:55.928Z,34.06
2023-05-14T15:03:25.546Z,33.98
2023-05-14T15:05:54.324Z,34.03
2023-05-14T15:08:28.639Z,34.02
2023-05-14T15:10:57.377Z,34.05
2023-05-14T15:13:27.035Z,34.32
2023-05-14T15:15:55.425Z,34.38
2023-05-14T15:18:23.641Z,34.23
2023-05-14T15:20:52.711Z,34.16
2023-05-14T15:23:21.010Z,34.29
2023-05-14T15:25:49.957Z,34.54
2023-05-14T15:28:18.473Z,34.79
2023-05-14T15:30:49.487Z,34.73
2023-05-14T15:33:19.336Z,34.75
2023-05-14T15:35:48.113Z,34.75
2023-05-14T15:38:16.389Z,34.71
2023-05-14T15:40:44.928Z,34.47
2023-05-14T15:43:13.506Z,34.43
2023-05-14T15:45:41.979Z,33.73
2023-05-14T15:48:11.721Z,33.58
2023-05-14T15:50:40.051Z,33.75
2023-05-14T15:53:08.384Z,33.83
2023-05-14T15:55:36.934Z,33.32
2023-05-14T15:58:05.496Z,33.28
2023-05-14T16:00:34.032Z,33.26
2023-05-14T16:03:03.137Z,33.43
2023-05-14T16:05:32.878Z,33.56
2023-05-14T16:08:01.110Z,33.44
2023-05-14T16:10:29.285Z,33.18
2023-05-14T16:12:57.486Z,33.04
2023-05-14T16:15:25.786Z,32.78
2023-05-14T16:17:54.379Z,32.49
2023-05-14T16:20:23.369Z,32.43
2023-05-14T16:22:53.158Z,32.54
2023-05-14T16:25:21.365Z,32.55
2023-05-14T16:27:49.933Z,32.56
2023-05-14T16:30:18.641Z,32.60
2023-05-14T16:32:49.403Z,32.65
2023-05-14T16:35:18.035Z,32.73
2023-05-14T16:37:46.535Z,32.80
2023-05-14T16:40:16.486Z,32.52
2023-05-14T16:42:47.791Z,32.42
2023-05-14T16:45:17.923Z,32.22
2023-05-14T16:47:46.142Z,32.10
2023-05-14T16:50:14.707Z,31.96
2023-05-14T16:52:43.234Z,31.68
2023-05-14T16:55:11.945Z,31.52
2023-05-14T16:57:41.500Z,31.31
2023-05-14T17:00:11.899Z,30.92
2023-05-14T17:02:40.243Z,30.61
2023-05-14T17:05:09.942Z,30.21
2023-05-14T17:07:39.477Z,29.76
2023-05-14T17:10:09.110Z,29.51
2023-05-14T17:12:37.642Z,29.43
2023-05-14T17:15:09.755Z,29.23
2023-05-14T17:17:38.154Z,29.10
2023-05-14T17:20:08.077Z,29.05
2023-05-14T17:22:36.456Z,28.82
2023-05-14T17:25:05.465Z,28.50
2023-05-14T17:27:33.787Z,28.30
2023-05-14T17:30:02.392Z,28.08
2023-05-14T17:32:32.097Z,27.97
2023-05-14T17:35:00.710Z,27.68
2023-05-14T17:37:29.262Z,27.19
2023-05-14T17:39:57.749Z,26.62
2023-05-14T17:42:26.294Z,26.11
2023-05-14T17:44:54.853Z,25.64
2023-05-14T17:47:23.107Z,25.23
2023-05-14T17:49:52.756Z,24.91
2023-05-14T17:52:21.457Z,24.49
2023-05-14T17:54:50.034Z,24.06
2023-05-14T17:57:18.480Z,23.71
2023-05-14T17:59:47.014Z,23.40
2023-05-14T18:02:15.482Z,23.11
2023-05-14T18:04:43.962Z,22.84
2023-05-14T18:07:13.754Z,22.61
2023-05-14T18:09:41.983Z,22.42
2023-05-14T18:12:10.794Z,22.26
2023-05-14T18:14:39.298Z,22.14
2023-05-14T18:17:07.673Z,21.99
2023-05-14T18:19:36.558Z,21.84
2023-05-14T18:22:05.187Z,21.69
2023-05-14T18:24:34.815Z,21.56
2023-05-14T18:27:03.386Z,21.39
2023-05-14T18:29:31.635Z,21.26
2023-05-14T18:32:00.150Z,21.16
2023-05-14T18:34:28.431Z,21.05
2023-05-14T18:36:57.550Z,20.96
2023-05-14T18:39:26.042Z,20.89
2023-05-14T18:41:56.615Z,20.84
2023-05-14T18:44:25.180Z,20.80
2023-05-14T18:46:53.781Z,20.75
2023-05-14T18:49:22.284Z,20.69
2023-05-14T18:51:50.521Z,20.64
2023-05-14T18:54:19.036Z,20.58
2023-05-14T18:56:47.876Z,20.50
2023-05-14T18:59:17.530Z,20.46
2023-05-14T19:01:45.759Z,20.39
2023-05-14T19:04:14.280Z,20.30
2023-05-14T19:06:42.928Z,20.23
2023-05-14T19:09:11.255Z,20.13
2023-05-14T19:11:39.769Z,20.03
2023-05-14T19:14:09.292Z,19.91
2023-05-14T19:16:38.943Z,19.80
2023-05-14T19:19:07.988Z,19.69
2023-05-14T19:21:36.674Z,19.57
2023-05-14T19:24:05.977Z,19.50
2023-05-14T19:26:34.638Z,19.44
2023-05-14T19:29:03.245Z,19.39
2023-05-14T19:31:31.533Z,19.31
2023-05-14T19:34:03.054Z,19.24
2023-05-14T19:36:32.536Z,19.14
2023-05-14T19:39:01.682Z,19.08
2023-05-14T19:41:30.600Z,19.02
2023-05-14T19:43:59.152Z,18.99
2023-05-14T19:46:27.706Z,18.93
2023-05-14T19:48:55.899Z,18.91
2023-05-14T19:51:26.178Z,18.89
2023-05-14T19:53:54.749Z,18.86
2023-05-14T19:56:24.667Z,18.85
2023-05-14T19:58:54.293Z,18.84
2023-05-14T20:01:22.988Z,18.81
2023-05-14T20:03:51.550Z,18.76
2023-05-14T20:06:19.791Z,18.71
2023-05-14T20:08:49.430Z,18.70
2023-05-14T20:11:19.347Z,18.67
2023-05-14T20:13:47.845Z,18.63
2023-05-14T20:16:16.858Z,18.60
2023-05-14T20:18:45.710Z,18.56
2023-05-14T20:21:14.677Z,18.53
2023-05-14T20:23:43.224Z,18.52
2023-05-14T20:26:12.960Z,18.52
2023-05-14T20:28:43.326Z,18.50
2023-05-14T20:31:11.877Z,18.50
2023-05-14T20:33:40.658Z,18.49
2023-05-14T20:36:09.157Z,18.45
2023-05-14T20:38:37.350Z,18.43
2023-05-14T20:41:05.875Z,18.40
2023-05-14T20:43:35.640Z,18.34
2023-05-14T20:46:05.804Z,18.25
2023-05-14T20:48:34.166Z,18.18
2023-05-14T20:51:04.838Z,18.16
2023-05-14T20:53:33.437Z,18.13
2023-05-14T20:56:02.057Z,18.10
2023-05-14T20:58:30.563Z,18.05
2023-05-14T21:01:00.522Z,18.02
2023-05-14T21:03:29.263Z,17.98
2023-05-14T21:05:57.624Z,17.95
2023-05-14T21:08:25.885Z,17.92
2023-05-14T21:10:54.157Z,17.89
2023-05-14T21:13:22.350Z,17.84
2023-05-14T21:15:51.121Z,17.79
2023-05-14T21:18:20.715Z,17.74
2023-05-14T21:20:49.226Z,17.66
2023-05-14T21:23:19.454Z,17.59
2023-05-14T21:25:47.993Z,17.54
2023-05-14T21:28:16.486Z,17.49
2023-05-14T21:30:45.011Z,17.41
2023-05-14T21:33:13.729Z,17.32
2023-05-14T21:35:43.359Z,17.23
2023-05-14T21:38:12.162Z,17.15
2023-05-14T21:40:40.371Z,17.06
2023-05-14T21:43:08.878Z,17.01
2023-05-14T21:45:37.482Z,16.95
2023-05-14T21:48:06.738Z,16.89
2023-05-14T21:50:35.314Z,16.85
2023-05-14T21:53:05.174Z,16.83
2023-05-14T21:55:33.847Z,16.77
2023-05-14T21:58:02.908Z,16.67
2023-05-14T22:00:31.814Z,16.59
2023-05-14T22:03:00.549Z,16.52
2023-05-14T22:05:29.193Z,16.46
2023-05-14T22:07:57.884Z,16.40
2023-05-14T22:10:27.456Z,16.34
2023-05-14T22:12:55.926Z,16.28
2023-05-14T22:15:24.622Z,16.24
2023-05-14T22:17:53.350Z,16.17
2023-05-14T22:20:21.558Z,16.12
2023-05-14T22:22:50.118Z,16.08
2023-05-14T22:25:18.702Z,16.02
2023-05-14T22:27:48.266Z,16.01
2023-05-14T22:30:16.936Z,15.95
2023-05-14T22:32:45.251Z,15.89
2023-05-14T22:35:14.129Z,15.87
2023-05-14T22:37:42.359Z,15.84
2023-05-14T22:40:11.728Z,15.82
2023-05-14T22:42:40.235Z,15.79
2023-05-14T22:45:11.392Z,15.77
2023-05-14T22:47:40.157Z,15.74
2023-05-14T22:50:11.532Z,15.75
2023-05-14T22:52:40.236Z,15.75
2023-05-14T22:55:09.593Z,15.76
2023-05-14T22:57:38.570Z,15.75
2023-05-14T23:00:10.400Z,15.75
2023-05-14T23:02:39.329Z,15.72
2023-05-14T23:05:09.488Z,15.68
2023-05-14T23:07:38.140Z,15.62
2023-05-14T23:10:07.470Z,15.60
2023-05-14T23:12:36.154Z,15.57
2023-05-14T23:15:05.216Z,15.54
2023-05-14T23:17:35.150Z,15.50
2023-05-14T23:20:05.783Z,15.43
2023-05-14T23:22:34.279Z,15.37
2023-05-14T23:25:02.838Z,15.27
2023-05-14T23:27:31.352Z,15.22
2023-05-14T23:29:59.909Z,15.18
2023-05-14T23:32:28.417Z,15.15
2023-05-14T23:35:00.150Z,15.11
2023-05-14T23:37:28.990Z,15.06
2023-05-14T23:39:57.496Z,15.03
2023-05-14T23:42:26.086Z,15.01
2023-05-14T23:44:54.606Z,15.00
2023-05-14T23:47:23.151Z,14.99
2023-05-14T23:49:51.770Z,15.00
2023-05-14T23:52:21.503Z,15.03
2023-05-14T23:54:50.015Z,15.02
2023-05-14T23:57:18.615Z,15.01
2023-05-14T23:59:47.144Z,15.02
